sensor_id;sensor_type;location;lat;lon;timestamp;P1;durP1;ratioP1;P2;durP2;ratioP2
30157;SDS011;21203;-33.912;151.178;2023-04-03T00:01:53;9.05;;;4.67;;
30157;SDS011;21203;-33.912;151.178;2023-04-03T00:04:24;17.37;;;11.70;;
30157;SDS011;21203;-33.912;151.178;2023-04-03T00:06:54;15.68;;;8.60;;
30157;SDS011;21203;-33.912;151.178;2023-04-03T00:12:19;9.93;;;3.05;;
30157;SDS011;21203;-33.912;151.178;2023-04-03T00:14:49;10.23;;;5.08;;
30157;SDS011;21203;-33.912;151.178;2023-04-03T00:17:18;6.22;;;3.92;;
30157;SDS011;21203;-33.912;151.178;2023-04-03T00:19:49;6.12;;;2.55;;
30157;SDS011;21203;-33.912;151.178;2023-04-03T00:22:19;5.05;;;2.40;;
30157;SDS011;21203;-33.912;151.178;2023-04-03T00:24:50;10.43;;;3.12;;
30157;SDS011;21203;-33.912;151.178;2023-04-03T00:27:21;7.17;;;2.30;;
30157;SDS011;21203;-33.912;151.178;2023-04-03T00:29:51;6.03;;;2.17;;
30157;SDS011;21203;-33.912;151.178;2023-04-03T00:32:22;7.35;;;2.47;;
30157;SDS011;21203;-33.912;151.178;2023-04-03T00:34:59;7.92;;;3.00;;
30157;SDS011;21203;-33.912;151.178;2023-04-03T00:37:30;10.58;;;4.47;;
30157;SDS011;21203;-33.912;151.178;2023-04-03T00:40:01;10.63;;;4.30;;
30157;SDS011;21203;-33.912;151.178;2023-04-03T00:42:32;9.95;;;4.50;;
30157;SDS011;21203;-33.912;151.178;2023-04-03T00:47:36;10.93;;;5.67;;
30157;SDS011;21203;-33.912;151.178;2023-04-03T00:50:08;10.03;;;6.33;;
30157;SDS011;21203;-33.912;151.178;2023-04-03T00:52:39;14.25;;;5.58;;
30157;SDS011;21203;-33.912;151.178;2023-04-03T00:55:09;8.90;;;5.95;;
30157;SDS011;21203;-33.912;151.178;2023-04-03T00:57:41;11.30;;;6.17;;
30157;SDS011;21203;-33.912;151.178;2023-04-03T01:00:13;8.60;;;6.03;;
30157;SDS011;21203;-33.912;151.178;2023-04-03T01:02:49;16.60;;;9.80;;
30157;SDS011;21203;-33.912;151.178;2023-04-03T01:05:16;16.45;;;9.13;;
30157;SDS011;21203;-33.912;151.178;2023-04-03T01:07:47;15.98;;;9.23;;
30157;SDS011;21203;-33.912;151.178;2023-04-03T01:10:19;16.35;;;9.38;;
30157;SDS011;21203;-33.912;151.178;2023-04-03T01:12:49;21.60;;;15.03;;
30157;SDS011;21203;-33.912;151.178;2023-04-03T01:15:24;14.87;;;9.48;;
30157;SDS011;21203;-33.912;151.178;2023-04-03T01:17:55;22.77;;;11.93;;
30157;SDS011;21203;-33.912;151.178;2023-04-03T01:21:28;23.00;;;11.75;;
30157;SDS011;21203;-33.912;151.178;2023-04-03T01:25:50;28.55;;;13.43;;
30157;SDS011;21203;-33.912;151.178;2023-04-03T01:28:28;20.50;;;11.73;;
30157;SDS011;21203;-33.912;151.178;2023-04-03T01:31:05;21.42;;;11.63;;
30157;SDS011;21203;-33.912;151.178;2023-04-03T01:33:33;26.50;;;13.32;;
30157;SDS011;21203;-33.912;151.178;2023-04-03T01:36:04;26.95;;;14.55;;
30157;SDS011;21203;-33.912;151.178;2023-04-03T01:38:37;22.62;;;12.20;;
30157;SDS011;21203;-33.912;151.178;2023-04-03T01:41:07;27.93;;;13.53;;
30157;SDS011;21203;-33.912;151.178;2023-04-03T01:43:38;24.65;;;13.95;;
30157;SDS011;21203;-33.912;151.178;2023-04-03T01:46:08;18.37;;;11.48;;
30157;SDS011;21203;-33.912;151.178;2023-04-03T01:48:40;19.27;;;11.22;;
30157;SDS011;21203;-33.912;151.178;2023-04-03T01:51:11;20.32;;;11.30;;
30157;SDS011;21203;-33.912;151.178;2023-04-03T01:53:42;16.95;;;7.15;;
30157;SDS011;21203;-33.912;151.178;2023-04-03T01:56:12;18.77;;;11.18;;
30157;SDS011;21203;-33.912;151.178;2023-04-03T01:58:42;20.25;;;10.55;;
30157;SDS011;21203;-33.912;151.178;2023-04-03T02:01:15;16.67;;;9.43;;
30157;SDS011;21203;-33.912;151.178;2023-04-03T02:03:46;20.82;;;9.25;;
30157;SDS011;21203;-33.912;151.178;2023-04-03T02:06:17;18.07;;;9.90;;
30157;SDS011;21203;-33.912;151.178;2023-04-03T02:09:06;15.43;;;8.45;;
30157;SDS011;21203;-33.912;151.178;2023-04-03T02:11:38;16.45;;;9.28;;
30157;SDS011;21203;-33.912;151.178;2023-04-03T02:14:08;16.65;;;9.10;;
30157;SDS011;21203;-33.912;151.178;2023-04-03T02:16:59;18.23;;;8.40;;
30157;SDS011;21203;-33.912;151.178;2023-04-03T02:19:32;15.03;;;6.22;;
30157;SDS011;21203;-33.912;151.178;2023-04-03T02:22:20;13.50;;;6.62;;
30157;SDS011;21203;-33.912;151.178;2023-04-03T02:24:51;9.63;;;5.35;;
30157;SDS011;21203;-33.912;151.178;2023-04-03T02:27:21;16.73;;;7.22;;
30157;SDS011;21203;-33.912;151.178;2023-04-03T02:29:53;10.25;;;5.42;;
30157;SDS011;21203;-33.912;151.178;2023-04-03T02:32:23;10.72;;;5.05;;
30157;SDS011;21203;-33.912;151.178;2023-04-03T02:34:53;9.88;;;4.65;;
30157;SDS011;21203;-33.912;151.178;2023-04-03T02:37:24;9.23;;;4.40;;
30157;SDS011;21203;-33.912;151.178;2023-04-03T02:39:55;9.00;;;4.20;;
30157;SDS011;21203;-33.912;151.178;2023-04-03T02:42:26;9.90;;;5.03;;
30157;SDS011;21203;-33.912;151.178;2023-04-03T02:45:00;11.75;;;5.67;;
30157;SDS011;21203;-33.912;151.178;2023-04-03T02:47:30;9.98;;;4.47;;
30157;SDS011;21203;-33.912;151.178;2023-04-03T02:50:01;9.68;;;5.03;;
30157;SDS011;21203;-33.912;151.178;2023-04-03T02:52:32;6.90;;;3.65;;
30157;SDS011;21203;-33.912;151.178;2023-04-03T02:55:08;9.70;;;4.37;;
30157;SDS011;21203;-33.912;151.178;2023-04-03T02:57:34;12.37;;;4.17;;
30157;SDS011;21203;-33.912;151.178;2023-04-03T03:00:05;8.45;;;3.50;;
30157;SDS011;21203;-33.912;151.178;2023-04-03T03:02:38;8.10;;;3.47;;
30157;SDS011;21203;-33.912;151.178;2023-04-03T03:05:08;7.87;;;3.70;;
30157;SDS011;21203;-33.912;151.178;2023-04-03T03:07:39;7.53;;;3.30;;
30157;SDS011;21203;-33.912;151.178;2023-04-03T03:10:09;9.35;;;3.40;;
30157;SDS011;21203;-33.912;151.178;2023-04-03T03:12:44;6.67;;;3.60;;
30157;SDS011;21203;-33.912;151.178;2023-04-03T03:15:15;7.25;;;3.37;;
30157;SDS011;21203;-33.912;151.178;2023-04-03T03:17:46;7.55;;;3.12;;
30157;SDS011;21203;-33.912;151.178;2023-04-03T03:20:16;7.90;;;3.10;;
30157;SDS011;21203;-33.912;151.178;2023-04-03T03:22:47;10.48;;;3.30;;
30157;SDS011;21203;-33.912;151.178;2023-04-03T03:25:17;7.35;;;2.80;;
30157;SDS011;21203;-33.912;151.178;2023-04-03T03:27:48;13.10;;;4.00;;
30157;SDS011;21203;-33.912;151.178;2023-04-03T03:30:18;7.10;;;3.10;;
30157;SDS011;21203;-33.912;151.178;2023-04-03T03:32:54;9.80;;;2.83;;
30157;SDS011;21203;-33.912;151.178;2023-04-03T03:35:23;7.03;;;2.62;;
30157;SDS011;21203;-33.912;151.178;2023-04-03T03:37:53;9.63;;;2.45;;
30157;SDS011;21203;-33.912;151.178;2023-04-03T03:40:23;8.08;;;2.70;;
30157;SDS011;21203;-33.912;151.178;2023-04-03T03:42:55;10.75;;;2.95;;
30157;SDS011;21203;-33.912;151.178;2023-04-03T03:45:29;7.85;;;2.37;;
30157;SDS011;21203;-33.912;151.178;2023-04-03T03:48:02;6.58;;;2.67;;
30157;SDS011;21203;-33.912;151.178;2023-04-03T03:50:30;8.93;;;2.08;;
30157;SDS011;21203;-33.912;151.178;2023-04-03T03:53:01;8.98;;;2.30;;
30157;SDS011;21203;-33.912;151.178;2023-04-03T03:55:31;8.33;;;2.37;;
30157;SDS011;21203;-33.912;151.178;2023-04-03T03:58:02;7.28;;;2.52;;
30157;SDS011;21203;-33.912;151.178;2023-04-03T04:00:32;5.92;;;2.10;;
30157;SDS011;21203;-33.912;151.178;2023-04-03T04:03:03;7.00;;;2.22;;
30157;SDS011;21203;-33.912;151.178;2023-04-03T04:05:33;5.10;;;2.25;;
30157;SDS011;21203;-33.912;151.178;2023-04-03T04:08:03;8.50;;;2.35;;
30157;SDS011;21203;-33.912;151.178;2023-04-03T04:10:34;8.80;;;2.27;;
30157;SDS011;21203;-33.912;151.178;2023-04-03T04:13:06;6.97;;;2.17;;
30157;SDS011;21203;-33.912;151.178;2023-04-03T04:15:36;15.10;;;2.40;;
30157;SDS011;21203;-33.912;151.178;2023-04-03T04:18:07;11.22;;;2.40;;
30157;SDS011;21203;-33.912;151.178;2023-04-03T04:20:37;7.37;;;1.95;;
30157;SDS011;21203;-33.912;151.178;2023-04-03T04:23:08;10.00;;;1.82;;
30157;SDS011;21203;-33.912;151.178;2023-04-03T04:25:38;11.00;;;2.60;;
30157;SDS011;21203;-33.912;151.178;2023-04-03T04:28:09;5.37;;;1.60;;
30157;SDS011;21203;-33.912;151.178;2023-04-03T04:30:39;8.10;;;2.00;;
30157;SDS011;21203;-33.912;151.178;2023-04-03T04:33:10;11.30;;;2.40;;
30157;SDS011;21203;-33.912;151.178;2023-04-03T04:35:41;7.62;;;2.02;;
30157;SDS011;21203;-33.912;151.178;2023-04-03T04:38:12;9.03;;;2.12;;
30157;SDS011;21203;-33.912;151.178;2023-04-03T04:40:42;8.58;;;2.10;;
30157;SDS011;21203;-33.912;151.178;2023-04-03T04:43:14;9.35;;;2.15;;
30157;SDS011;21203;-33.912;151.178;2023-04-03T04:45:45;6.35;;;1.50;;
30157;SDS011;21203;-33.912;151.178;2023-04-03T04:48:15;7.53;;;1.77;;
30157;SDS011;21203;-33.912;151.178;2023-04-03T04:50:45;10.38;;;2.87;;
30157;SDS011;21203;-33.912;151.178;2023-04-03T04:53:16;11.28;;;2.47;;
30157;SDS011;21203;-33.912;151.178;2023-04-03T04:55:46;8.75;;;1.98;;
30157;SDS011;21203;-33.912;151.178;2023-04-03T04:58:17;5.90;;;1.98;;
30157;SDS011;21203;-33.912;151.178;2023-04-03T05:00:47;6.60;;;1.50;;
30157;SDS011;21203;-33.912;151.178;2023-04-03T05:03:18;7.15;;;2.08;;
30157;SDS011;21203;-33.912;151.178;2023-04-03T05:05:49;7.40;;;1.75;;
30157;SDS011;21203;-33.912;151.178;2023-04-03T05:08:24;10.50;;;2.12;;
30157;SDS011;21203;-33.912;151.178;2023-04-03T05:10:51;6.80;;;1.80;;
30157;SDS011;21203;-33.912;151.178;2023-04-03T05:13:21;6.85;;;1.60;;
30157;SDS011;21203;-33.912;151.178;2023-04-03T05:15:51;7.08;;;1.80;;
30157;SDS011;21203;-33.912;151.178;2023-04-03T05:18:22;7.15;;;1.60;;
30157;SDS011;21203;-33.912;151.178;2023-04-03T05:20:52;11.65;;;2.02;;
30157;SDS011;21203;-33.912;151.178;2023-04-03T05:23:23;7.90;;;2.00;;
30157;SDS011;21203;-33.912;151.178;2023-04-03T05:25:54;5.72;;;1.65;;
30157;SDS011;21203;-33.912;151.178;2023-04-03T05:28:25;5.90;;;1.52;;
30157;SDS011;21203;-33.912;151.178;2023-04-03T05:30:55;5.55;;;1.77;;
30157;SDS011;21203;-33.912;151.178;2023-04-03T05:33:26;7.37;;;1.65;;
30157;SDS011;21203;-33.912;151.178;2023-04-03T05:35:57;10.58;;;1.87;;
30157;SDS011;21203;-33.912;151.178;2023-04-03T05:38:29;6.95;;;1.95;;
30157;SDS011;21203;-33.912;151.178;2023-04-03T05:41:00;5.85;;;1.50;;
30157;SDS011;21203;-33.912;151.178;2023-04-03T05:43:31;7.58;;;1.95;;
30157;SDS011;21203;-33.912;151.178;2023-04-03T05:46:03;9.08;;;1.90;;
30157;SDS011;21203;-33.912;151.178;2023-04-03T05:48:35;10.18;;;1.62;;
30157;SDS011;21203;-33.912;151.178;2023-04-03T05:51:06;7.85;;;1.75;;
30157;SDS011;21203;-33.912;151.178;2023-04-03T05:53:37;10.45;;;1.70;;
30157;SDS011;21203;-33.912;151.178;2023-04-03T05:56:10;8.63;;;1.67;;
30157;SDS011;21203;-33.912;151.178;2023-04-03T05:58:39;8.20;;;1.85;;
30157;SDS011;21203;-33.912;151.178;2023-04-03T06:01:10;7.78;;;1.98;;
30157;SDS011;21203;-33.912;151.178;2023-04-03T06:03:40;8.83;;;1.52;;
30157;SDS011;21203;-33.912;151.178;2023-04-03T06:06:14;5.10;;;1.70;;
30157;SDS011;21203;-33.912;151.178;2023-04-03T06:08:42;6.03;;;1.98;;
30157;SDS011;21203;-33.912;151.178;2023-04-03T06:11:12;5.83;;;1.70;;
30157;SDS011;21203;-33.912;151.178;2023-04-03T06:13:43;8.80;;;1.70;;
30157;SDS011;21203;-33.912;151.178;2023-04-03T06:16:16;6.10;;;1.82;;
30157;SDS011;21203;-33.912;151.178;2023-04-03T06:18:47;7.05;;;2.08;;
30157;SDS011;21203;-33.912;151.178;2023-04-03T06:21:20;8.03;;;2.08;;
30157;SDS011;21203;-33.912;151.178;2023-04-03T06:23:51;5.28;;;1.30;;
30157;SDS011;21203;-33.912;151.178;2023-04-03T06:26:22;7.65;;;1.95;;
30157;SDS011;21203;-33.912;151.178;2023-04-03T06:28:52;9.53;;;2.05;;
30157;SDS011;21203;-33.912;151.178;2023-04-03T06:31:23;10.75;;;1.70;;
30157;SDS011;21203;-33.912;151.178;2023-04-03T06:33:53;6.97;;;1.67;;
30157;SDS011;21203;-33.912;151.178;2023-04-03T06:36:24;6.00;;;1.70;;
30157;SDS011;21203;-33.912;151.178;2023-04-03T06:38:54;8.53;;;2.00;;
30157;SDS011;21203;-33.912;151.178;2023-04-03T06:41:24;8.83;;;1.98;;
30157;SDS011;21203;-33.912;151.178;2023-04-03T06:43:54;9.55;;;2.62;;
30157;SDS011;21203;-33.912;151.178;2023-04-03T06:46:25;7.35;;;2.10;;
30157;SDS011;21203;-33.912;151.178;2023-04-03T06:48:56;9.80;;;2.08;;
30157;SDS011;21203;-33.912;151.178;2023-04-03T06:51:27;8.85;;;2.08;;
30157;SDS011;21203;-33.912;151.178;2023-04-03T06:53:58;9.18;;;2.20;;
30157;SDS011;21203;-33.912;151.178;2023-04-03T06:56:28;7.60;;;1.95;;
30157;SDS011;21203;-33.912;151.178;2023-04-03T06:58:58;3.85;;;1.60;;
30157;SDS011;21203;-33.912;151.178;2023-04-03T07:01:29;7.75;;;1.90;;
30157;SDS011;21203;-33.912;151.178;2023-04-03T07:04:00;9.90;;;2.00;;
30157;SDS011;21203;-33.912;151.178;2023-04-03T07:06:30;8.65;;;1.70;;
30157;SDS011;21203;-33.912;151.178;2023-04-03T07:09:00;8.83;;;1.85;;
30157;SDS011;21203;-33.912;151.178;2023-04-03T07:11:31;6.33;;;1.98;;
30157;SDS011;21203;-33.912;151.178;2023-04-03T07:14:01;10.53;;;2.00;;
30157;SDS011;21203;-33.912;151.178;2023-04-03T07:16:33;8.60;;;1.90;;
30157;SDS011;21203;-33.912;151.178;2023-04-03T07:19:03;9.45;;;1.90;;
30157;SDS011;21203;-33.912;151.178;2023-04-03T07:21:34;8.33;;;2.08;;
30157;SDS011;21203;-33.912;151.178;2023-04-03T07:24:05;7.45;;;1.92;;
30157;SDS011;21203;-33.912;151.178;2023-04-03T07:26:36;8.18;;;1.82;;
30157;SDS011;21203;-33.912;151.178;2023-04-03T07:29:06;10.78;;;2.42;;
30157;SDS011;21203;-33.912;151.178;2023-04-03T07:31:38;10.45;;;2.72;;
30157;SDS011;21203;-33.912;151.178;2023-04-03T07:34:08;12.70;;;2.35;;
30157;SDS011;21203;-33.912;151.178;2023-04-03T07:36:39;9.40;;;1.82;;
30157;SDS011;21203;-33.912;151.178;2023-04-03T07:39:09;7.08;;;2.00;;
30157;SDS011;21203;-33.912;151.178;2023-04-03T07:41:40;7.70;;;1.95;;
30157;SDS011;21203;-33.912;151.178;2023-04-03T07:44:10;5.28;;;1.87;;
30157;SDS011;21203;-33.912;151.178;2023-04-03T07:46:41;7.08;;;1.87;;
30157;SDS011;21203;-33.912;151.178;2023-04-03T07:49:11;6.17;;;1.82;;
30157;SDS011;21203;-33.912;151.178;2023-04-03T07:51:42;5.90;;;1.72;;
30157;SDS011;21203;-33.912;151.178;2023-04-03T07:54:14;10.53;;;2.17;;
30157;SDS011;21203;-33.912;151.178;2023-04-03T07:56:44;7.50;;;1.50;;
30157;SDS011;21203;-33.912;151.178;2023-04-03T07:59:15;6.65;;;1.65;;
30157;SDS011;21203;-33.912;151.178;2023-04-03T08:01:45;7.97;;;2.00;;
30157;SDS011;21203;-33.912;151.178;2023-04-03T08:04:15;6.80;;;2.12;;
30157;SDS011;21203;-33.912;151.178;2023-04-03T08:06:46;8.20;;;2.27;;
30157;SDS011;21203;-33.912;151.178;2023-04-03T08:09:16;10.13;;;1.90;;
30157;SDS011;21203;-33.912;151.178;2023-04-03T08:11:47;6.47;;;1.70;;
30157;SDS011;21203;-33.912;151.178;2023-04-03T08:14:18;6.35;;;1.80;;
30157;SDS011;21203;-33.912;151.178;2023-04-03T08:16:49;7.80;;;2.22;;
30157;SDS011;21203;-33.912;151.178;2023-04-03T08:19:19;10.43;;;2.55;;
30157;SDS011;21203;-33.912;151.178;2023-04-03T08:21:50;11.73;;;2.85;;
30157;SDS011;21203;-33.912;151.178;2023-04-03T08:24:20;6.97;;;2.00;;
30157;SDS011;21203;-33.912;151.178;2023-04-03T08:26:51;10.18;;;3.00;;
30157;SDS011;21203;-33.912;151.178;2023-04-03T08:29:21;9.93;;;2.42;;
30157;SDS011;21203;-33.912;151.178;2023-04-03T08:31:52;12.53;;;4.17;;
30157;SDS011;21203;-33.912;151.178;2023-04-03T08:34:22;13.38;;;4.53;;
30157;SDS011;21203;-33.912;151.178;2023-04-03T08:36:52;17.42;;;5.83;;
30157;SDS011;21203;-33.912;151.178;2023-04-03T08:39:23;18.05;;;7.80;;
30157;SDS011;21203;-33.912;151.178;2023-04-03T08:41:54;17.90;;;7.10;;
30157;SDS011;21203;-33.912;151.178;2023-04-03T08:47:02;14.53;;;4.72;;
30157;SDS011;21203;-33.912;151.178;2023-04-03T08:49:46;12.60;;;5.33;;
30157;SDS011;21203;-33.912;151.178;2023-04-03T08:52:18;15.48;;;7.15;;
30157;SDS011;21203;-33.912;151.178;2023-04-03T08:54:58;16.30;;;9.20;;
30157;SDS011;21203;-33.912;151.178;2023-04-03T08:57:38;19.80;;;8.88;;
30157;SDS011;21203;-33.912;151.178;2023-04-03T09:00:17;17.27;;;6.37;;
30157;SDS011;21203;-33.912;151.178;2023-04-03T09:02:50;13.65;;;5.50;;
30157;SDS011;21203;-33.912;151.178;2023-04-03T09:05:30;16.97;;;7.20;;
30157;SDS011;21203;-33.912;151.178;2023-04-03T09:10:59;16.90;;;6.90;;
30157;SDS011;21203;-33.912;151.178;2023-04-03T09:13:49;12.85;;;6.35;;
30157;SDS011;21203;-33.912;151.178;2023-04-03T09:16:12;10.82;;;5.50;;
30157;SDS011;21203;-33.912;151.178;2023-04-03T09:18:41;17.48;;;5.15;;
30157;SDS011;21203;-33.912;151.178;2023-04-03T09:23:54;17.02;;;6.60;;
30157;SDS011;21203;-33.912;151.178;2023-04-03T09:26:36;12.60;;;5.92;;
30157;SDS011;21203;-33.912;151.178;2023-04-03T09:29:06;14.43;;;4.97;;
30157;SDS011;21203;-33.912;151.178;2023-04-03T09:31:37;12.78;;;6.03;;
30157;SDS011;21203;-33.912;151.178;2023-04-03T09:34:17;14.80;;;5.47;;
30157;SDS011;21203;-33.912;151.178;2023-04-03T09:36:54;12.98;;;5.00;;
30157;SDS011;21203;-33.912;151.178;2023-04-03T09:39:52;12.07;;;4.80;;
30157;SDS011;21203;-33.912;151.178;2023-04-03T09:42:23;12.88;;;4.78;;
30157;SDS011;21203;-33.912;151.178;2023-04-03T09:45:00;14.78;;;4.95;;
30157;SDS011;21203;-33.912;151.178;2023-04-03T09:47:34;16.93;;;5.25;;
30157;SDS011;21203;-33.912;151.178;2023-04-03T09:53:07;16.93;;;5.30;;
30157;SDS011;21203;-33.912;151.178;2023-04-03T09:55:42;17.20;;;3.52;;
30157;SDS011;21203;-33.912;151.178;2023-04-03T09:58:27;14.18;;;3.67;;
30157;SDS011;21203;-33.912;151.178;2023-04-03T10:00:58;16.35;;;3.75;;
30157;SDS011;21203;-33.912;151.178;2023-04-03T10:06:03;8.08;;;3.02;;
30157;SDS011;21203;-33.912;151.178;2023-04-03T10:08:34;9.95;;;3.62;;
30157;SDS011;21203;-33.912;151.178;2023-04-03T10:11:15;9.20;;;3.67;;
30157;SDS011;21203;-33.912;151.178;2023-04-03T10:14:02;12.58;;;4.35;;
30157;SDS011;21203;-33.912;151.178;2023-04-03T10:16:46;10.63;;;3.50;;
30157;SDS011;21203;-33.912;151.178;2023-04-03T10:24:51;12.70;;;4.40;;
30157;SDS011;21203;-33.912;151.178;2023-04-03T10:27:44;14.55;;;4.75;;
30157;SDS011;21203;-33.912;151.178;2023-04-03T10:36:11;11.55;;;5.10;;
30157;SDS011;21203;-33.912;151.178;2023-04-03T10:41:55;8.88;;;3.80;;
30157;SDS011;21203;-33.912;151.178;2023-04-03T10:44:48;14.65;;;3.58;;
30157;SDS011;21203;-33.912;151.178;2023-04-03T10:50:49;15.80;;;4.75;;
30157;SDS011;21203;-33.912;151.178;2023-04-03T10:53:31;11.53;;;4.50;;
30157;SDS011;21203;-33.912;151.178;2023-04-03T11:02:01;10.50;;;4.50;;
30157;SDS011;21203;-33.912;151.178;2023-04-03T11:04:27;12.37;;;4.87;;
30157;SDS011;21203;-33.912;151.178;2023-04-03T11:07:08;10.53;;;5.03;;
30157;SDS011;21203;-33.912;151.178;2023-04-03T11:09:44;16.90;;;6.35;;
30157;SDS011;21203;-33.912;151.178;2023-04-03T11:12:36;12.90;;;5.58;;
30157;SDS011;21203;-33.912;151.178;2023-04-03T11:17:37;15.72;;;5.37;;
30157;SDS011;21203;-33.912;151.178;2023-04-03T11:22:48;13.48;;;4.37;;
30157;SDS011;21203;-33.912;151.178;2023-04-03T11:25:24;12.65;;;4.30;;
30157;SDS011;21203;-33.912;151.178;2023-04-03T11:27:56;11.95;;;4.00;;
30157;SDS011;21203;-33.912;151.178;2023-04-03T11:30:44;11.25;;;3.90;;
30157;SDS011;21203;-33.912;151.178;2023-04-03T11:36:10;11.70;;;3.72;;
30157;SDS011;21203;-33.912;151.178;2023-04-03T11:38:46;14.75;;;3.55;;
30157;SDS011;21203;-33.912;151.178;2023-04-03T11:41:17;12.82;;;3.30;;
30157;SDS011;21203;-33.912;151.178;2023-04-03T11:44:00;10.03;;;3.40;;
30157;SDS011;21203;-33.912;151.178;2023-04-03T11:47:09;15.75;;;3.92;;
30157;SDS011;21203;-33.912;151.178;2023-04-03T12:00:48;10.80;;;3.75;;
30157;SDS011;21203;-33.912;151.178;2023-04-03T12:16:30;11.93;;;4.85;;
30157;SDS011;21203;-33.912;151.178;2023-04-03T12:22:08;12.82;;;4.85;;
30157;SDS011;21203;-33.912;151.178;2023-04-03T12:24:39;13.10;;;4.97;;
30157;SDS011;21203;-33.912;151.178;2023-04-03T12:27:24;14.23;;;4.80;;
30157;SDS011;21203;-33.912;151.178;2023-04-03T12:30:03;11.45;;;4.12;;
30157;SDS011;21203;-33.912;151.178;2023-04-03T12:32:41;15.05;;;5.25;;
30157;SDS011;21203;-33.912;151.178;2023-04-03T12:35:49;11.97;;;4.45;;
30157;SDS011;21203;-33.912;151.178;2023-04-03T12:41:17;10.40;;;4.35;;
30157;SDS011;21203;-33.912;151.178;2023-04-03T12:46:50;11.18;;;5.40;;
30157;SDS011;21203;-33.912;151.178;2023-04-03T12:49:33;14.55;;;5.75;;
30157;SDS011;21203;-33.912;151.178;2023-04-03T12:52:22;12.53;;;5.85;;
30157;SDS011;21203;-33.912;151.178;2023-04-03T12:55:14;12.55;;;5.00;;
30157;SDS011;21203;-33.912;151.178;2023-04-03T12:57:55;12.82;;;5.92;;
30157;SDS011;21203;-33.912;151.178;2023-04-03T13:00:28;13.65;;;5.58;;
30157;SDS011;21203;-33.912;151.178;2023-04-03T13:03:02;12.53;;;5.08;;
30157;SDS011;21203;-33.912;151.178;2023-04-03T13:05:34;12.80;;;5.28;;
30157;SDS011;21203;-33.912;151.178;2023-04-03T13:08:05;12.33;;;4.47;;
30157;SDS011;21203;-33.912;151.178;2023-04-03T13:10:59;11.65;;;5.28;;
30157;SDS011;21203;-33.912;151.178;2023-04-03T13:16:07;15.50;;;5.33;;
30157;SDS011;21203;-33.912;151.178;2023-04-03T13:18:40;10.78;;;5.10;;
30157;SDS011;21203;-33.912;151.178;2023-04-03T13:21:18;10.08;;;4.65;;
30157;SDS011;21203;-33.912;151.178;2023-04-03T13:23:46;12.05;;;4.80;;
30157;SDS011;21203;-33.912;151.178;2023-04-03T13:26:18;12.33;;;4.70;;
30157;SDS011;21203;-33.912;151.178;2023-04-03T13:28:49;12.53;;;5.22;;
30157;SDS011;21203;-33.912;151.178;2023-04-03T13:31:25;12.95;;;4.92;;
30157;SDS011;21203;-33.912;151.178;2023-04-03T13:34:02;7.90;;;4.33;;
30157;SDS011;21203;-33.912;151.178;2023-04-03T13:36:37;12.33;;;5.20;;
30157;SDS011;21203;-33.912;151.178;2023-04-03T13:41:50;12.07;;;4.90;;
30157;SDS011;21203;-33.912;151.178;2023-04-03T13:44:16;13.38;;;4.90;;
30157;SDS011;21203;-33.912;151.178;2023-04-03T13:46:56;10.75;;;5.30;;
30157;SDS011;21203;-33.912;151.178;2023-04-03T13:51:57;11.78;;;4.72;;
30157;SDS011;21203;-33.912;151.178;2023-04-03T13:54:32;10.08;;;4.62;;
30157;SDS011;21203;-33.912;151.178;2023-04-03T13:57:03;10.45;;;4.83;;
30157;SDS011;21203;-33.912;151.178;2023-04-03T13:59:40;13.32;;;5.12;;
30157;SDS011;21203;-33.912;151.178;2023-04-03T14:04:52;9.43;;;4.37;;
30157;SDS011;21203;-33.912;151.178;2023-04-03T14:07:22;11.22;;;4.05;;
30157;SDS011;21203;-33.912;151.178;2023-04-03T14:09:54;10.88;;;4.70;;
30157;SDS011;21203;-33.912;151.178;2023-04-03T14:12:33;10.58;;;4.67;;
30157;SDS011;21203;-33.912;151.178;2023-04-03T14:15:00;6.75;;;3.25;;
30157;SDS011;21203;-33.912;151.178;2023-04-03T14:17:32;11.85;;;3.37;;
30157;SDS011;21203;-33.912;151.178;2023-04-03T14:20:02;9.58;;;4.00;;
30157;SDS011;21203;-33.912;151.178;2023-04-03T14:22:34;11.43;;;3.17;;
30157;SDS011;21203;-33.912;151.178;2023-04-03T14:25:04;11.43;;;4.72;;
30157;SDS011;21203;-33.912;151.178;2023-04-03T14:27:36;11.15;;;4.20;;
30157;SDS011;21203;-33.912;151.178;2023-04-03T14:30:09;9.73;;;3.62;;
30157;SDS011;21203;-33.912;151.178;2023-04-03T14:32:43;9.35;;;3.50;;
30157;SDS011;21203;-33.912;151.178;2023-04-03T14:35:14;11.83;;;4.35;;
30157;SDS011;21203;-33.912;151.178;2023-04-03T14:37:45;10.50;;;3.75;;
30157;SDS011;21203;-33.912;151.178;2023-04-03T14:40:17;10.08;;;3.92;;
30157;SDS011;21203;-33.912;151.178;2023-04-03T14:42:48;10.38;;;3.77;;
30157;SDS011;21203;-33.912;151.178;2023-04-03T14:45:20;10.88;;;4.10;;
30157;SDS011;21203;-33.912;151.178;2023-04-03T14:47:51;8.08;;;3.37;;
30157;SDS011;21203;-33.912;151.178;2023-04-03T14:50:23;9.40;;;3.50;;
30157;SDS011;21203;-33.912;151.178;2023-04-03T14:52:55;9.55;;;3.12;;
30157;SDS011;21203;-33.912;151.178;2023-04-03T14:55:27;11.05;;;3.27;;
30157;SDS011;21203;-33.912;151.178;2023-04-03T14:57:58;11.08;;;3.35;;
30157;SDS011;21203;-33.912;151.178;2023-04-03T15:00:28;7.97;;;3.05;;
30157;SDS011;21203;-33.912;151.178;2023-04-03T15:02:59;11.65;;;2.62;;
30157;SDS011;21203;-33.912;151.178;2023-04-03T15:05:29;9.23;;;3.58;;
30157;SDS011;21203;-33.912;151.178;2023-04-03T15:08:00;9.78;;;3.02;;
30157;SDS011;21203;-33.912;151.178;2023-04-03T15:10:31;9.88;;;3.37;;
30157;SDS011;21203;-33.912;151.178;2023-04-03T15:13:02;11.90;;;3.47;;
30157;SDS011;21203;-33.912;151.178;2023-04-03T15:15:36;7.28;;;2.77;;
30157;SDS011;21203;-33.912;151.178;2023-04-03T15:18:09;7.25;;;2.95;;
30157;SDS011;21203;-33.912;151.178;2023-04-03T15:20:39;9.23;;;3.00;;
30157;SDS011;21203;-33.912;151.178;2023-04-03T15:23:10;12.40;;;2.92;;
30157;SDS011;21203;-33.912;151.178;2023-04-03T15:25:46;10.18;;;2.70;;
30157;SDS011;21203;-33.912;151.178;2023-04-03T15:28:30;7.47;;;2.47;;
30157;SDS011;21203;-33.912;151.178;2023-04-03T15:31:01;9.23;;;3.30;;
30157;SDS011;21203;-33.912;151.178;2023-04-03T15:33:33;8.95;;;3.00;;
30157;SDS011;21203;-33.912;151.178;2023-04-03T15:36:04;9.80;;;3.12;;
30157;SDS011;21203;-33.912;151.178;2023-04-03T15:38:34;8.48;;;2.77;;
30157;SDS011;21203;-33.912;151.178;2023-04-03T15:41:05;9.05;;;3.02;;
30157;SDS011;21203;-33.912;151.178;2023-04-03T15:43:36;9.00;;;2.92;;
30157;SDS011;21203;-33.912;151.178;2023-04-03T15:46:06;8.50;;;3.27;;
30157;SDS011;21203;-33.912;151.178;2023-04-03T15:48:37;10.03;;;2.92;;
30157;SDS011;21203;-33.912;151.178;2023-04-03T15:51:09;6.45;;;2.47;;
30157;SDS011;21203;-33.912;151.178;2023-04-03T15:53:42;14.83;;;3.60;;
30157;SDS011;21203;-33.912;151.178;2023-04-03T15:56:12;8.88;;;2.70;;
30157;SDS011;21203;-33.912;151.178;2023-04-03T15:58:43;11.15;;;3.30;;
30157;SDS011;21203;-33.912;151.178;2023-04-03T16:01:13;8.65;;;2.62;;
30157;SDS011;21203;-33.912;151.178;2023-04-03T16:03:44;8.00;;;2.58;;
30157;SDS011;21203;-33.912;151.178;2023-04-03T16:06:14;10.95;;;2.98;;
30157;SDS011;21203;-33.912;151.178;2023-04-03T16:08:47;7.50;;;2.65;;
30157;SDS011;21203;-33.912;151.178;2023-04-03T16:11:19;7.33;;;3.10;;